Time;durP1;ratioP1;P1;durP2;ratioP2;P2;SDS_P1;SDS_P2;PMS_P1;PMS_P2;Temp;Humidity;BMP_temperature;BMP_pressure;BME280_temperature;BME280_humidity;BME280_pressure;Samples;Min_cycle;Max_cycle;Signal;HPM_P1;HPM_P2
2023/08/26 00:00:34;;;;;;;27.83;14.27;;;;;;;10.49;71.14;100015.94;4952800;28;20059;-74
2023/08/26 00:03:03;;;;;;;21.77;12.75;;;;;;;10.40;71.06;99997.78;4945718;28;20039;-75
2023/08/26 00:05:29;;;;;;;21.35;12.70;;;;;;;10.39;70.92;99996.06;4928627;29;20046;-75
2023/08/26 00:07:56;;;;;;;24.55;13.10;;;;;;;10.29;71.06;99982.19;4963544;28;20039;-74
2023/08/26 00:10:22;;;;;;;34.70;14.52;;;;;;;10.42;70.81;100027.25;4966442;28;20067;-74
2023/08/26 00:12:48;;;;;;;32.22;16.58;;;;;;;10.43;70.44;100018.59;4941328;29;20386;-75
2023/08/26 00:15:14;;;;;;;29.70;14.57;;;;;;;9.92;71.21;99926.03;4950390;28;20043;-76
2023/08/26 00:17:40;;;;;;;30.15;14.57;;;;;;;10.49;71.17;100031.53;4947711;28;20461;-77
2023/08/26 00:20:08;;;;;;;26.02;14.95;;;;;;;10.46;70.99;100033.31;4949117;28;20039;-75
2023/08/26 00:22:35;;;;;;;25.67;14.75;;;;;;;10.39;70.62;100020.31;4948923;28;20069;-75
2023/08/26 00:25:02;;;;;;;25.33;13.73;;;;;;;10.50;70.83;100035.88;4967128;28;20039;-74
2023/08/26 00:27:28;;;;;;;26.55;14.85;;;;;;;10.47;70.66;100038.53;4945138;28;20138;-72
2023/08/26 00:29:54;;;;;;;31.05;14.70;;;;;;;10.46;70.91;100038.50;4937502;28;20043;-73
2023/08/26 00:32:20;;;;;;;33.63;13.95;;;;;;;10.31;70.64;100016.00;4945463;28;20333;-73
2023/08/26 00:34:46;;;;;;;27.05;14.38;;;;;;;10.34;70.56;100021.19;4941977;28;20086;-73
2023/08/26 00:37:12;;;;;;;24.17;13.68;;;;;;;10.37;70.74;100035.03;4957390;28;20233;-72
2023/08/26 00:39:38;;;;;;;28.75;13.35;;;;;;;10.30;70.76;100022.94;4945924;28;20146;-72
2023/08/26 00:42:05;;;;;;;28.30;14.50;;;;;;;10.34;70.93;100026.38;4949914;28;20043;-72
2023/08/26 00:44:31;;;;;;;32.53;15.38;;;;;;;10.27;70.64;100022.06;4944030;28;20418;-71
2023/08/26 00:46:59;;;;;;;28.98;14.27;;;;;;;10.19;70.90;100011.69;4944476;28;20039;-72
2023/08/26 00:49:25;;;;;;;25.67;14.70;;;;;;;10.33;71.00;100035.06;4966972;28;20033;-72
2023/08/26 00:51:52;;;;;;;30.73;17.13;;;;;;;10.34;71.28;100039.38;4932597;29;20043;-73
2023/08/26 00:54:20;;;;;;;26.88;14.82;;;;;;;10.28;70.72;100026.41;4961668;28;20050;-72
2023/08/26 00:56:46;;;;;;;32.75;16.65;;;;;;;10.18;70.75;100010.84;4966174;28;20075;-72
2023/08/26 00:59:12;;;;;;;34.63;16.35;;;;;;;10.28;70.79;100037.69;4949774;28;20031;-72
2023/08/26 01:01:39;;;;;;;26.52;15.40;;;;;;;10.13;70.74;100007.41;4947461;28;20106;-73
2023/08/26 01:04:06;;;;;;;28.55;15.75;;;;;;;10.33;70.81;100040.25;4919701;28;20043;-72
2023/08/26 01:06:32;;;;;;;23.75;14.68;;;;;;;10.23;70.90;100029.91;4948555;28;20053;-71
2023/08/26 01:08:59;;;;;;;30.88;17.25;;;;;;;10.26;71.24;100034.22;4947192;28;20047;-72
2023/08/26 01:11:49;;;;;;;27.35;13.70;;;;;;;10.18;71.23;100021.25;4933958;29;20529;-72
2023/08/26 01:14:30;;;;;;;23.70;13.23;;;;;;;10.32;71.08;100041.13;4933331;29;20156;-72
2023/08/26 01:16:57;;;;;;;20.65;11.20;;;;;;;10.32;71.53;100033.31;4949848;28;20497;-71
2023/08/26 01:19:33;;;;;;;23.05;11.70;;;;;;;10.31;71.19;100042.88;4930964;29;20050;-72
2023/08/26 01:22:04;;;;;;;25.55;12.10;;;;;;;10.24;71.14;100028.16;4966512;28;20039;-70
2023/08/26 01:24:31;;;;;;;25.95;12.63;;;;;;;10.20;71.40;100021.25;4946217;28;20039;-71
2023/08/26 01:26:58;;;;;;;29.27;12.50;;;;;;;9.94;70.91;99986.66;4922499;29;20532;-72
2023/08/26 01:29:25;;;;;;;23.17;10.68;;;;;;;10.14;71.24;100024.72;4966141;28;20051;-72
2023/08/26 01:32:15;;;;;;;19.23;10.02;;;;;;;10.12;70.98;100026.47;4933570;29;20300;-70
2023/08/26 01:34:46;;;;;;;22.02;11.93;;;;;;;10.01;71.10;100023.91;4942537;28;20054;-71
2023/08/26 01:37:13;;;;;;;20.48;12.25;;;;;;;10.12;71.33;100036.03;4928633;29;20361;-71
2023/08/26 01:39:40;;;;;;;34.50;12.93;;;;;;;10.04;71.05;100034.31;4945349;28;20094;-72
2023/08/26 01:42:09;;;;;;;27.17;11.70;;;;;;;9.85;71.27;100007.47;4946871;28;20050;-71
2023/08/26 01:44:35;;;;;;;22.65;12.52;;;;;;;9.98;71.11;100026.50;4946204;28;20042;-71
2023/08/26 01:47:04;;;;;;;27.75;12.18;;;;;;;9.96;71.33;100023.03;4927816;29;20042;-72
2023/08/26 01:49:30;;;;;;;26.38;11.38;;;;;;;10.03;71.25;100031.72;4934494;28;20089;-71
2023/08/26 01:51:56;;;;;;;22.27;11.90;;;;;;;10.03;71.58;100029.97;4937365;29;20097;-71
2023/08/26 01:54:23;;;;;;;22.13;11.57;;;;;;;9.95;71.38;100026.50;4965052;28;20054;-74
2023/08/26 01:56:49;;;;;;;20.63;11.77;;;;;;;9.98;71.26;100036.06;4926337;29;20557;-71
2023/08/26 01:59:16;;;;;;;17.90;10.93;;;;;;;9.96;71.57;100036.03;4934373;29;20055;-77
2023/08/26 02:01:45;;;;;;;20.45;11.65;;;;;;;9.87;71.84;100018.75;4913070;29;20088;-78
2023/08/26 02:04:11;;;;;;;19.75;11.25;;;;;;;9.97;71.86;100027.38;4944814;28;20552;-73
2023/08/26 02:06:40;;;;;;;18.92;11.35;;;;;;;9.78;71.43;100005.78;4929619;29;20098;-70
2023/08/26 02:09:07;;;;;;;22.13;11.80;;;;;;;9.72;71.49;99996.25;4946716;28;20523;-71
2023/08/26 02:11:41;;;;;;;24.77;13.60;;;;;;;9.89;71.60;100043.00;4914677;29;20208;-70
2023/08/26 02:14:08;;;;;;;25.73;12.48;;;;;;;9.82;71.56;100036.06;4958501;28;20045;-70
2023/08/26 02:16:34;;;;;;;17.80;11.70;;;;;;;9.86;71.96;100040.41;4943379;28;20070;-72
2023/08/26 02:19:02;;;;;;;20.33;11.23;;;;;;;9.85;72.15;100046.47;4943808;28;20061;-72
2023/08/26 02:21:28;;;;;;;24.63;12.45;;;;;;;9.89;71.77;100039.56;4956050;28;20031;-72
2023/08/26 02:23:54;;;;;;;26.20;12.52;;;;;;;9.90;71.90;100043.88;4940882;29;20116;-73
2023/08/26 02:26:21;;;;;;;26.20;12.27;;;;;;;9.94;72.31;100035.19;4949875;28;20050;-74
2023/08/26 02:28:48;;;;;;;46.17;13.48;;;;;;;9.92;72.22;100030.00;4950000;28;20067;-71
2023/08/26 02:31:14;;;;;;;35.42;13.40;;;;;;;9.89;71.87;100018.75;4943515;29;20035;-70
2023/08/26 02:33:40;;;;;;;34.70;12.98;;;;;;;9.96;72.09;100015.25;4952702;28;20782;-71
2023/08/26 02:36:06;;;;;;;39.60;12.07;;;;;;;10.07;72.23;100020.41;4950728;28;20098;-71
2023/08/26 02:38:33;;;;;;;25.92;12.40;;;;;;;10.02;71.99;100006.59;4952304;28;20549;-71
2023/08/26 02:41:00;;;;;;;20.88;11.30;;;;;;;10.19;71.97;100028.19;4936454;29;20046;-71
2023/08/26 02:43:26;;;;;;;22.88;11.15;;;;;;;10.27;71.78;100033.34;4928011;29;20043;-72
2023/08/26 02:45:53;;;;;;;21.52;11.23;;;;;;;10.25;72.23;100022.97;4919572;29;20120;-71
2023/08/26 02:48:23;;;;;;;21.98;10.52;;;;;;;10.37;72.05;100026.38;4969338;28;20486;-71
2023/08/26 02:50:56;;;;;;;23.77;10.98;;;;;;;10.47;72.28;100030.72;4948236;28;20046;-72
2023/08/26 02:53:25;;;;;;;21.38;12.20;;;;;;;10.62;72.40;100032.34;4948837;28;20042;-72
2023/08/26 02:55:51;;;;;;;23.10;11.82;;;;;;;10.68;72.55;100032.31;4951922;28;20039;-71
2023/08/26 02:58:18;;;;;;;30.80;12.40;;;;;;;10.68;71.99;100014.09;4950849;28;20039;-72
2023/08/26 03:00:45;;;;;;;25.75;11.55;;;;;;;10.83;71.80;100018.34;4969000;28;20051;-71
2023/08/26 03:03:11;;;;;;;23.85;11.60;;;;;;;11.02;72.12;100033.84;4935679;29;20043;-72
2023/08/26 03:05:37;;;;;;;27.80;11.52;;;;;;;11.12;71.95;100043.34;4959031;28;20046;-73
2023/08/26 03:08:03;;;;;;;18.52;10.10;;;;;;;11.15;72.04;100038.09;4923579;29;20167;-73
2023/08/26 03:10:30;;;;;;;26.13;11.70;;;;;;;11.21;71.75;100039.81;4938428;28;20503;-73
2023/08/26 03:12:56;;;;;;;19.83;10.10;;;;;;;11.24;71.82;100020.66;4950657;28;20051;-72
2023/08/26 03:15:26;;;;;;;23.05;10.48;;;;;;;11.40;71.63;100027.47;4947945;28;20725;-73
2023/08/26 03:17:52;;;;;;;18.75;10.38;;;;;;;11.64;71.81;100051.59;4954597;28;20043;-72
2023/08/26 03:20:18;;;;;;;16.17;9.43;;;;;;;11.62;71.72;100021.22;4940165;28;20047;-72
2023/08/26 03:22:45;;;;;;;23.23;10.50;;;;;;;11.79;71.26;100024.50;4959647;28;20413;-71
2023/08/26 03:25:12;;;;;;;23.35;10.73;;;;;;;12.06;71.24;100053.81;4932425;28;20469;-72
2023/08/26 03:27:38;;;;;;;18.58;9.63;;;;;;;12.19;71.39;100044.13;4950375;28;20043;-73
2023/08/26 03:30:05;;;;;;;19.77;9.32;;;;;;;12.33;71.02;100052.63;4939388;28;20113;-72
2023/08/26 03:32:33;;;;;;;18.92;8.68;;;;;;;12.42;70.78;100054.25;4967785;28;20664;-72
2023/08/26 03:35:00;;;;;;;12.23;8.38;;;;;;;12.52;70.32;100039.34;4952445;28;20047;-72
2023/08/26 03:37:26;;;;;;;16.65;8.80;;;;;;;12.53;70.49;100041.06;4945464;28;20062;-73
2023/08/26 03:39:52;;;;;;;18.80;9.15;;;;;;;12.77;69.93;100046.84;4948625;28;20039;-73
2023/08/26 03:42:21;;;;;;;19.77;8.75;;;;;;;12.96;69.92;100048.31;4947103;28;20066;-74
2023/08/26 03:44:47;;;;;;;17.20;8.38;;;;;;;13.10;69.53;100048.09;4944381;28;20040;-70
2023/08/26 03:47:13;;;;;;;13.43;8.77;;;;;;;13.28;69.26;100040.84;4949634;28;20047;-71
2023/08/26 03:49:39;;;;;;;16.73;8.05;;;;;;;13.37;69.21;100037.22;4948612;28;20046;-73
2023/08/26 03:52:05;;;;;;;16.55;8.25;;;;;;;13.35;68.87;100013.75;4947771;28;20063;-74
2023/08/26 03:54:31;;;;;;;19.65;8.38;;;;;;;13.41;68.71;99986.66;4935362;28;20038;-73
2023/08/26 03:56:57;;;;;;;17.63;8.20;;;;;;;13.81;68.47;100026.91;4939263;29;20073;-73
2023/08/26 03:59:23;;;;;;;14.45;7.82;;;;;;;14.04;68.21;100030.84;4945559;28;20102;-74
2023/08/26 04:01:50;;;;;;;21.70;8.35;;;;;;;14.34;67.98;100033.75;4967813;28;20134;-73
2023/08/26 04:04:16;;;;;;;14.82;7.80;;;;;;;14.51;67.71;100022.91;4955977;28;20755;-74
2023/08/26 04:06:42;;;;;;;12.98;7.55;;;;;;;14.79;67.08;100033.66;4947228;28;20074;-74
2023/08/26 04:09:08;;;;;;;13.60;7.45;;;;;;;14.87;66.58;100034.34;4966918;28;20605;-73
2023/08/26 04:11:34;;;;;;;15.88;7.47;;;;;;;14.87;66.07;100041.38;4942584;29;20581;-73
2023/08/26 04:14:00;;;;;;;12.55;7.03;;;;;;;14.83;66.02;100035.31;4946081;28;20047;-73
2023/08/26 04:16:28;;;;;;;13.88;7.55;;;;;;;14.90;65.97;100036.03;4945466;28;20043;-75
2023/08/26 04:18:54;;;;;;;14.60;7.05;;;;;;;14.95;65.23;100041.19;4951568;28;20138;-75
2023/08/26 04:21:20;;;;;;;18.48;8.32;;;;;;;14.98;64.94;100022.78;4919799;29;20154;-74
2023/08/26 04:23:48;;;;;;;10.05;6.55;;;;;;;15.06;64.95;100021.69;4967253;28;20138;-74
2023/08/26 04:26:14;;;;;;;8.70;6.70;;;;;;;14.93;65.06;99978.31;4938658;29;20129;-88
2023/08/26 04:28:41;;;;;;;12.45;6.30;;;;;;;15.19;64.64;99982.06;4950967;28;21510;-76
2023/08/26 04:31:07;;;;;;;9.57;7.15;;;;;;;15.67;64.62;100017.53;4933956;29;20047;-76
2023/08/26 04:33:34;;;;;;;15.00;7.43;;;;;;;15.65;64.42;99959.91;4943008;28;20134;-75
2023/08/26 04:36:00;;;;;;;13.27;6.90;;;;;;;16.17;63.90;99984.72;4931250;29;20205;-69
2023/08/26 04:38:26;;;;;;;13.20;6.55;;;;;;;16.65;63.42;100001.72;4943576;28;20362;-66
2023/08/26 04:40:52;;;;;;;11.85;6.90;;;;;;;17.03;62.63;100015.44;4947028;28;20069;-67
2023/08/26 04:43:18;;;;;;;9.93;5.95;;;;;;;17.33;62.17;99994.28;4949210;28;20032;-66
2023/08/26 04:45:44;;;;;;;10.13;6.07;;;;;;;17.80;61.75;99997.94;4938962;29;20054;-67
2023/08/26 04:48:10;;;;;;;11.32;5.82;;;;;;;18.25;60.31;100004.25;4930680;28;20035;-67
2023/08/26 04:50:36;;;;;;;8.95;5.95;;;;;;;18.51;59.57;99984.81;4931067;29;20051;-67
2023/08/26 04:53:03;;;;;;;7.70;5.78;;;;;;;18.74;59.25;99991.84;4944894;28;20075;-67
2023/08/26 04:55:31;;;;;;;9.60;6.03;;;;;;;18.90;58.17;99967.47;4948760;28;20047;-65
2023/08/26 04:57:57;;;;;;;8.07;5.35;;;;;;;19.41;57.44;99986.50;4945790;28;20042;-69
2023/08/26 05:00:25;;;;;;;10.30;4.82;;;;;;;19.49;55.99;99996.72;4944614;28;20612;-71
2023/08/26 05:02:52;;;;;;;9.00;4.28;;;;;;;19.53;54.70;99998.31;4965015;28;20058;-68
2023/08/26 05:05:19;;;;;;;5.65;4.30;;;;;;;19.62;54.38;100007.59;4964370;28;20441;-74
2023/08/26 05:07:45;;;;;;;9.52;5.05;;;;;;;19.86;53.98;100003.88;4944162;28;20135;-72
2023/08/26 05:10:12;;;;;;;7.57;3.83;;;;;;;20.02;53.05;99990.91;4931367;28;20043;-67
2023/08/26 05:12:38;;;;;;;5.80;3.63;;;;;;;20.26;52.42;99989.84;4927669;29;20043;-66
2023/08/26 05:15:06;;;;;;;12.27;3.85;;;;;;;20.69;51.01;99977.22;4942176;28;20043;-67
2023/08/26 05:17:32;;;;;;;6.93;3.78;;;;;;;21.54;50.33;99985.41;4939743;28;20035;-67
2023/08/26 05:19:58;;;;;;;5.03;3.17;;;;;;;22.93;48.43;99989.47;4936430;28;20045;-71
2023/08/26 05:22:24;;;;;;;6.40;3.63;;;;;;;23.69;46.43;99983.28;4964578;28;20048;-68
2023/08/26 05:24:50;;;;;;;8.68;4.05;;;;;;;23.66;44.59;99975.50;4948175;28;20078;-68
2023/08/26 05:27:19;;;;;;;7.90;4.85;;;;;;;23.46;43.25;99969.59;4946228;28;20042;-68
2023/08/26 05:29:46;;;;;;;10.90;4.40;;;;;;;23.41;42.80;99970.78;4945654;28;20082;-69
2023/08/26 05:32:12;;;;;;;11.27;3.83;;;;;;;23.50;42.50;99958.78;4964198;28;20051;-71
2023/08/26 05:34:38;;;;;;;12.27;4.40;;;;;;;23.56;42.41;99948.63;4942834;28;20043;-68
2023/08/26 05:37:05;;;;;;;10.63;4.65;;;;;;;23.77;41.79;99937.66;4932110;29;20489;-64
2023/08/26 05:39:31;;;;;;;8.73;4.20;;;;;;;23.99;41.59;99954.94;4930805;29;20043;-66
2023/08/26 05:41:58;;;;;;;9.05;4.18;;;;;;;23.96;41.21;99953.28;4943026;28;20043;-69
2023/08/26 05:44:24;;;;;;;12.10;5.18;;;;;;;23.94;41.63;99957.84;4945386;28;20043;-67
2023/08/26 05:46:50;;;;;;;10.77;4.60;;;;;;;23.87;40.84;99957.38;4912007;29;20042;-69
2023/08/26 05:49:16;;;;;;;11.60;4.93;;;;;;;23.49;41.28;99947.28;4942035;28;20122;-68
2023/08/26 05:51:42;;;;;;;11.15;4.53;;;;;;;23.24;41.33;99943.47;4929933;28;20101;-68
2023/08/26 05:54:09;;;;;;;10.60;4.78;;;;;;;23.18;41.62;99970.31;4929549;28;20130;-71
2023/08/26 05:56:35;;;;;;;9.85;4.50;;;;;;;22.89;41.42;99967.59;4946256;28;20194;-72
2023/08/26 05:59:01;;;;;;;9.05;4.10;;;;;;;22.63;41.43;99948.72;4946794;28;20152;-66
2023/08/26 06:01:27;;;;;;;8.50;4.80;;;;;;;22.48;41.61;99960.19;4944832;28;20051;-66
2023/08/26 06:03:54;;;;;;;10.48;4.63;;;;;;;22.31;41.77;99955.81;4931293;29;20046;-66
2023/08/26 06:06:20;;;;;;;8.32;4.45;;;;;;;22.23;41.90;99970.31;4943708;28;20048;-67
2023/08/26 06:08:46;;;;;;;7.43;4.30;;;;;;;22.08;41.84;99952.63;4928369;28;20062;-69
2023/08/26 06:11:13;;;;;;;8.35;4.40;;;;;;;21.92;41.92;99947.28;4942700;28;20047;-71
2023/08/26 06:13:41;;;;;;;14.38;4.63;;;;;;;21.88;42.07;99966.94;4915343;28;20081;-71
2023/08/26 06:16:08;;;;;;;10.50;4.60;;;;;;;21.93;42.20;99976.38;4946496;28;20114;-68
2023/08/26 06:18:34;;;;;;;11.35;5.00;;;;;;;21.96;42.43;99965.56;4946522;28;20034;-69
2023/08/26 06:21:00;;;;;;;7.43;4.25;;;;;;;22.08;42.30;99968.50;4941472;28;20078;-68
2023/08/26 06:23:26;;;;;;;8.38;3.88;;;;;;;22.29;42.11;99962.97;4957781;28;20058;-68
2023/08/26 06:25:53;;;;;;;8.95;4.35;;;;;;;22.83;41.99;99962.63;4946017;28;20047;-68
2023/08/26 06:28:22;;;;;;;12.82;4.80;;;;;;;23.75;41.34;99952.81;4947211;28;20062;-70
2023/08/26 06:30:48;;;;;;;8.93;4.47;;;;;;;24.92;40.59;99959.66;4940712;28;20040;-67
2023/08/26 06:33:16;;;;;;;10.15;4.70;;;;;;;25.73;38.74;99939.09;4912545;28;20133;-66
2023/08/26 06:35:47;;;;;;;11.77;4.50;;;;;;;26.76;36.41;99949.50;4913623;28;20143;-66
2023/08/26 06:38:14;;;;;;;9.02;4.22;;;;;;;26.97;36.38;99943.56;4929127;28;20067;-65
2023/08/26 06:40:40;;;;;;;10.60;4.45;;;;;;;27.04;35.81;99951.94;4941360;28;20054;-66
2023/08/26 06:43:09;;;;;;;10.48;4.43;;;;;;;27.37;35.02;99947.63;4936835;28;20054;-67
2023/08/26 06:45:35;;;;;;;24.95;5.22;;;;;;;27.55;34.71;99924.03;4944939;28;20046;-67
2023/08/26 06:48:04;;;;;;;8.48;4.15;;;;;;;27.77;34.22;99933.88;4923267;28;20035;-69
2023/08/26 06:50:30;;;;;;;13.68;4.60;;;;;;;27.74;33.41;99949.28;4939984;28;20047;-70
2023/08/26 06:52:59;;;;;;;8.65;4.43;;;;;;;27.69;33.37;99925.63;4946498;28;20039;-69
2023/08/26 06:55:25;;;;;;;11.43;4.30;;;;;;;28.37;32.74;99916.66;4941658;28;20105;-69
2023/08/26 06:57:51;;;;;;;11.13;4.60;;;;;;;29.12;32.11;99940.88;4935697;29;20038;-69
2023/08/26 07:00:18;;;;;;;11.80;4.47;;;;;;;29.36;31.16;99919.19;4942890;28;20138;-70
2023/08/26 07:02:44;;;;;;;12.75;4.47;;;;;;;29.72;30.84;99922.31;4945918;28;20145;-68
2023/08/26 07:05:10;;;;;;;12.60;4.10;;;;;;;30.00;30.05;99919.06;4943310;28;20039;-68
2023/08/26 07:07:36;;;;;;;10.63;4.35;;;;;;;30.30;29.19;99917.28;4945559;28;20630;-67
2023/08/26 07:10:04;;;;;;;16.52;4.35;;;;;;;30.32;29.42;99928.72;4945729;28;20134;-67
2023/08/26 07:12:30;;;;;;;14.93;3.80;;;;;;;29.93;29.29;99926.75;4931883;29;20051;-67
2023/08/26 07:14:57;;;;;;;9.50;3.90;;;;;;;29.63;29.46;99923.13;4940425;29;20076;-67
2023/08/26 07:17:23;;;;;;;9.55;4.10;;;;;;;30.39;28.78;99926.34;4930205;29;20122;-68
2023/08/26 07:19:50;;;;;;;12.13;4.45;;;;;;;31.52;28.12;99907.91;4946453;28;20438;-67
2023/08/26 07:22:15;;;;;;;8.30;3.60;;;;;;;32.52;26.97;99918.03;4947738;28;20137;-69
2023/08/26 07:24:41;;;;;;;11.48;4.13;;;;;;;32.90;25.94;99919.53;4943862;28;20163;-68
2023/08/26 07:27:07;;;;;;;8.77;3.53;;;;;;;33.19;25.84;99912.19;4930857;29;20114;-73
2023/08/26 07:29:34;;;;;;;9.73;4.00;;;;;;;32.79;24.93;99909.00;4950119;28;20043;-73
2023/08/26 07:32:00;;;;;;;10.93;3.47;;;;;;;31.86;25.93;99899.28;4947221;28;20071;-73
2023/08/26 07:34:27;;;;;;;10.65;3.78;;;;;;;31.63;26.04;99915.78;4946419;28;20044;-71
2023/08/26 07:36:52;;;;;;;6.72;3.17;;;;;;;31.62;26.13;99910.56;4943880;28;20198;-72
2023/08/26 07:39:21;;;;;;;6.72;3.53;;;;;;;31.18;26.15;99913.78;4931000;29;20044;-70
2023/08/26 07:41:51;;;;;;;5.10;3.25;;;;;;;30.85;25.97;99915.94;4934782;29;20069;-70
2023/08/26 07:44:17;;;;;;;7.30;3.17;;;;;;;30.74;26.92;99900.81;4949514;28;20035;-70
2023/08/26 07:46:43;;;;;;;11.05;3.65;;;;;;;31.13;26.28;99916.88;4939445;29;20051;-70
2023/08/26 07:49:10;;;;;;;5.00;3.22;;;;;;;30.61;26.17;99923.41;4944575;28;20031;-69
2023/08/26 07:51:36;;;;;;;7.95;3.63;;;;;;;29.70;27.15;99910.88;4914741;29;20047;-70
2023/08/26 07:54:02;;;;;;;6.47;3.70;;;;;;;29.05;27.89;99916.41;4931548;29;20043;-73
2023/08/26 07:56:28;;;;;;;6.85;3.63;;;;;;;28.11;28.78;99903.63;4945177;28;20044;-71
2023/08/26 07:58:54;;;;;;;8.25;3.22;;;;;;;27.72;29.61;99919.16;4949148;28;20062;-72
2023/08/26 08:01:20;;;;;;;13.18;4.10;;;;;;;27.26;30.40;99911.06;4946322;28;20047;-71
2023/08/26 08:03:46;;;;;;;5.82;3.42;;;;;;;26.92;30.76;99922.53;4943618;28;20040;-71
2023/08/26 08:06:12;;;;;;;8.70;3.65;;;;;;;26.60;31.12;99923.09;4948168;28;20045;-71
2023/08/26 08:08:38;;;;;;;5.40;3.22;;;;;;;26.11;31.67;99900.00;4946107;28;20036;-72
2023/08/26 08:11:03;;;;;;;7.22;3.78;;;;;;;25.78;32.21;99912.16;4931125;28;20050;-72
2023/08/26 08:13:30;;;;;;;6.55;3.65;;;;;;;25.58;32.86;99909.06;4945171;28;20040;-71
2023/08/26 08:15:56;;;;;;;8.15;3.33;;;;;;;25.39;33.34;99896.16;4944785;28;20042;-70
2023/08/26 08:18:22;;;;;;;7.47;3.22;;;;;;;25.18;33.35;99911.78;4937754;28;20318;-71
2023/08/26 08:20:48;;;;;;;6.75;2.92;;;;;;;24.71;33.67;99860.84;4933511;28;20039;-72
2023/08/26 08:23:14;;;;;;;7.63;3.45;;;;;;;24.74;33.70;99897.88;4947634;28;20052;-72
2023/08/26 08:25:40;;;;;;;11.45;3.30;;;;;;;24.44;34.58;99893.59;4961062;28;20090;-72
2023/08/26 08:28:06;;;;;;;16.52;3.72;;;;;;;24.33;35.04;99899.59;4946586;28;20054;-72
2023/08/26 08:30:32;;;;;;;12.35;3.58;;;;;;;24.20;35.13;99897.75;4947029;28;20134;-71
2023/08/26 08:32:58;;;;;;;9.15;3.17;;;;;;;23.90;35.71;99887.25;4941519;29;20569;-72
2023/08/26 08:35:24;;;;;;;4.65;2.85;;;;;;;23.75;35.78;99887.25;4948466;28;20049;-71
2023/08/26 08:37:50;;;;;;;6.63;3.17;;;;;;;23.65;35.67;99894.09;4944067;28;20043;-72
2023/08/26 08:40:16;;;;;;;6.78;2.97;;;;;;;23.71;36.43;99893.72;4940988;29;20035;-71
2023/08/26 08:42:43;;;;;;;4.97;2.88;;;;;;;23.59;36.15;99895.34;4950120;28;21746;-74
2023/08/26 08:45:11;;;;;;;7.45;2.90;;;;;;;23.10;36.98;99851.38;4945281;28;20047;-70
2023/08/26 08:47:37;;;;;;;6.25;2.92;;;;;;;23.16;37.65;99889.97;4948297;28;20529;-70
2023/08/26 08:50:04;;;;;;;4.50;2.72;;;;;;;22.99;37.91;99877.72;4947733;28;20561;-72
2023/08/26 08:52:31;;;;;;;3.05;2.63;;;;;;;22.91;38.21;99895.88;4942702;28;20126;-72
2023/08/26 08:54:57;;;;;;;7.65;2.95;;;;;;;22.66;38.66;99895.50;4946907;28;20134;-71
2023/08/26 08:57:34;;;;;;;5.07;2.63;;;;;;;22.44;38.74;99866.72;4946882;28;20047;-72
2023/08/26 09:00:02;;;;;;;5.85;3.08;;;;;;;22.33;38.93;99882.38;4946957;28;20089;-73
2023/08/26 09:02:31;;;;;;;5.07;2.92;;;;;;;22.27;39.25;99897.66;4930741;29;20066;-71
2023/08/26 09:04:57;;;;;;;6.07;2.65;;;;;;;22.05;39.71;99889.19;4944384;28;20145;-69
2023/08/26 09:07:25;;;;;;;7.53;2.50;;;;;;;21.95;40.25;99887.06;4912954;28;20057;-71
2023/08/26 09:09:53;;;;;;;6.68;2.90;;;;;;;21.82;40.49;99880.72;4943210;28;20087;-69
2023/08/26 09:12:19;;;;;;;3.47;2.63;;;;;;;21.69;41.17;99885.00;4931214;28;20137;-71
2023/08/26 09:14:45;;;;;;;5.93;2.78;;;;;;;21.53;41.57;99880.47;4942718;28;20596;-72
2023/08/26 09:17:18;;;;;;;6.78;2.90;;;;;;;21.27;41.99;99858.91;4922058;28;20047;-70
2023/08/26 09:19:56;;;;;;;6.53;2.97;;;;;;;21.04;42.42;99834.50;4936361;29;20035;-69
2023/08/26 09:22:26;;;;;;;4.60;2.88;;;;;;;21.07;42.88;99859.94;4944425;28;20043;-70
2023/08/26 09:24:56;;;;;;;4.32;2.88;;;;;;;21.07;43.55;99889.88;4933012;29;20039;-70
2023/08/26 09:27:22;;;;;;;6.47;2.90;;;;;;;20.92;44.19;99875.66;4947118;28;20234;-72
2023/08/26 09:29:49;;;;;;;5.35;3.20;;;;;;;20.83;44.43;99867.34;4959323;28;20058;-69
2023/08/26 09:32:29;;;;;;;6.28;3.10;;;;;;;20.58;44.74;99827.09;4943079;28;20577;-71
2023/08/26 09:35:11;;;;;;;7.55;2.90;;;;;;;20.95;44.86;99894.97;4946827;28;20065;-69
2023/08/26 09:37:39;;;;;;;7.65;3.13;;;;;;;20.84;45.08;99883.13;4930018;29;20043;-73
2023/08/26 09:40:06;;;;;;;9.95;3.10;;;;;;;20.77;45.53;99887.88;4964121;28;20040;-70
2023/08/26 09:42:33;;;;;;;5.35;2.78;;;;;;;20.60;45.60;99867.53;4945892;28;20042;-72
2023/08/26 09:45:00;;;;;;;5.78;2.90;;;;;;;20.55;46.18;99868.69;4950239;28;20190;-71
2023/08/26 09:47:34;;;;;;;8.63;3.05;;;;;;;20.64;45.93;99883.22;4938063;29;20043;-73
2023/08/26 09:50:00;;;;;;;6.35;3.08;;;;;;;20.61;45.80;99898.31;4941898;29;20526;-70
2023/08/26 09:52:26;;;;;;;7.05;3.13;;;;;;;20.56;45.87;99894.19;4945503;28;20061;-72
2023/08/26 09:54:53;;;;;;;9.02;3.20;;;;;;;20.49;46.28;99896.28;4941382;28;20043;-72
2023/08/26 09:57:20;;;;;;;7.28;2.88;;;;;;;20.48;46.49;99891.91;4944261;28;20039;-72
2023/08/26 09:59:46;;;;;;;8.60;2.88;;;;;;;20.50;46.85;99883.91;4928040;29;20039;-72
2023/08/26 10:02:22;;;;;;;7.72;3.30;;;;;;;20.47;46.98;99882.28;4927766;29;20045;-71
2023/08/26 10:04:55;;;;;;;8.80;3.20;;;;;;;20.52;47.08;99889.97;4945678;28;20039;-71
2023/08/26 10:07:23;;;;;;;7.22;3.20;;;;;;;20.42;47.20;99871.06;4948737;28;20039;-75
2023/08/26 10:10:29;;;;;;;9.30;2.67;;;;;;;20.41;47.15;99887.84;4964392;28;20524;-76
2023/08/26 10:13:05;;;;;;;8.73;3.22;;;;;;;20.23;47.38;99890.47;4949645;28;20090;-73
2023/08/26 10:15:33;;;;;;;13.40;3.75;;;;;;;20.06;47.06;99895.69;4948980;28;20138;-69
2023/08/26 10:18:14;;;;;;;5.07;2.97;;;;;;;19.75;47.66;99874.13;4946376;28;20035;-70
2023/08/26 10:20:43;;;;;;;5.45;2.70;;;;;;;19.62;47.92;99894.13;4943190;28;20532;-69
2023/08/26 10:23:12;;;;;;;6.53;2.60;;;;;;;19.46;47.92;99881.63;4925852;29;20036;-71
2023/08/26 10:25:38;;;;;;;3.72;2.60;;;;;;;19.37;48.22;99895.19;4962300;28;20070;-71
2023/08/26 10:28:05;;;;;;;4.05;2.67;;;;;;;19.32;49.33;99905.97;4944836;28;20040;-69
2023/08/26 10:30:32;;;;;;;5.38;2.67;;;;;;;19.20;50.32;99904.72;4943631;28;20039;-72
2023/08/26 10:33:00;;;;;;;5.88;4.10;;;;;;;19.11;50.65;99897.19;4943697;28;20036;-69
2023/08/26 10:35:27;;;;;;;4.28;2.72;;;;;;;18.95;50.90;99899.63;4940263;28;20505;-75
2023/08/26 10:38:13;;;;;;;3.55;2.95;;;;;;;18.80;51.40;99895.84;4945687;28;20044;-72
2023/08/26 10:40:39;;;;;;;3.80;2.60;;;;;;;18.61;51.56;99872.00;4915859;29;20043;-78
2023/08/26 10:43:12;;;;;;;3.97;2.58;;;;;;;18.44;52.03;99870.06;4925822;28;20524;-73
2023/08/26 10:45:49;;;;;;;4.65;3.03;;;;;;;18.51;52.82;99892.59;4928039;29;20043;-75
2023/08/26 10:48:15;;;;;;;5.03;2.67;;;;;;;18.33;52.83;99881.88;4948515;28;20496;-75
2023/08/26 10:50:44;;;;;;;5.07;3.92;;;;;;;18.25;52.98;99870.78;4949817;28;20131;-79
2023/08/26 10:53:15;;;;;;;6.50;4.38;;;;;;;18.27;53.85;99897.09;4949045;28;20079;-78
2023/08/26 10:55:42;;;;;;;12.45;6.32;;;;;;;17.86;54.22;99855.59;4947078;28;20141;-79
2023/08/26 10:58:09;;;;;;;9.90;6.05;;;;;;;18.01;54.75;99885.78;4952847;28;20053;-77
2023/08/26 11:00:37;;;;;;;6.82;4.13;;;;;;;17.98;55.15;99889.41;4937012;28;20066;-79
2023/08/26 11:03:08;;;;;;;5.57;3.50;;;;;;;17.94;55.77;99881.63;4969663;28;20652;-78
2023/08/26 11:05:39;;;;;;;5.45;3.15;;;;;;;17.86;55.96;99872.28;4940236;29;20043;-88
2023/08/26 11:08:06;;;;;;;5.38;3.83;;;;;;;17.87;56.13;99874.00;4952986;28;20090;-84
2023/08/26 11:10:39;;;;;;;6.45;3.85;;;;;;;17.89;56.80;99882.66;4957157;28;20134;-86
2023/08/26 11:13:10;;;;;;;8.88;4.80;;;;;;;17.77;57.32;99860.28;4956191;28;20058;-83
2023/08/26 11:15:40;;;;;;;8.68;5.25;;;;;;;17.84;57.61;99866.19;4952836;28;20129;-80
2023/08/26 11:18:08;;;;;;;14.40;7.53;;;;;;;17.49;57.60;99826.28;4945125;29;20138;-78
2023/08/26 11:20:34;;;;;;;14.30;8.80;;;;;;;17.49;58.26;99836.78;4939353;29;20043;-87
2023/08/26 11:23:05;;;;;;;14.65;8.38;;;;;;;17.56;58.33;99858.47;4952083;28;20046;-86
2023/08/26 11:25:33;;;;;;;11.30;6.57;;;;;;;17.34;58.96;99837.38;4958654;28;20081;-85